SILO ALERT LOG
| Silo ID | Alert Type | Alert Message | Silo Type | Points | Depth (mm) | Strength | Temperature (°C) | Humidity (%) | Height (mm) | Volume (㎥) | Weight (t) | Flag | Time |
|---|---|---|---|---|---|---|---|---|---|---|---|---|---|
| DJHNR03 | Temperature | 온도센서 상태 이상 | 호퍼 | 0 | 15500 | 0 | -999 | -999 | -119 | 0 | 0 | 31 | 2024-01-10 13:39:24.000 |
| DJSSD12 | Temperature | 온도센서 상태 이상 | 호퍼 | 0 | 11350 | 0 | -999 | -999 | -120 | 0 | 0 | 31 | 2024-01-10 13:39:24.000 |
| DJHNR12 | Humidity | 습도센서 측정값이 80% 초과 | 호퍼 | 0 | 10500 | 0 | 3 | 82.1 | -120 | 0 | 0 | 31 | 2024-01-10 13:39:23.000 |
| DJSAD01 | Humidity | 습도센서 측정값이 80% 초과 | 평 | 441 | 1520 | 7295 | 1.3 | 88.3 | 7259 | 300.509 | 189.982 | 0 | 2024-01-10 12:39:40.000 |
| DJSAD05 | Humidity | 습도센서 측정값이 80% 초과 | 평 | 486 | 893 | 15272 | 1.9 | 80.5 | 7886 | 326.464 | 206.39 | 11 | 2024-01-10 12:39:39.000 |
| DJSAD03 | Humidity | 습도센서 측정값이 80% 초과 | 평 | 449 | 1651 | 6146 | 2.5 | 84.5 | 7128 | 295.112 | 186.57 | 0 | 2024-01-10 12:39:39.000 |
| DJSAD02 | Humidity | 습도센서 측정값이 80% 초과 | 평 | 388 | 1137 | 4286 | 2.1 | 87.6 | 7642 | 316.365 | 200.006 | 11 | 2024-01-10 12:39:39.000 |
| DJDJD03 | Humidity | 습도센서 측정값이 80% 초과 | 평 | 56 | 4494 | 5104 | 2.4 | 80.3 | 3185 | 385.896 | 243.964 | 0 | 2024-01-10 12:39:39.000 |
| DJSSD01 | Humidity | 습도센서 측정값이 80% 초과 | 평 | 792 | 2579 | 4642 | 5.4 | 80.9 | 5500 | 765.569 | 483.993 | 0 | 2024-01-10 12:39:33.000 |
| DJHNR01 | Humidity | 습도센서 측정값이 80% 초과 | 호퍼 | 471 | 4300 | 5050 | 4.4 | 99.9 | 11079 | 473.415 | 299.293 | 13 | 2024-01-10 12:39:33.000 |
| DJSSD04 | Temperature | 온도센서 상태 이상 | 평 | 0 | 8200 | 0 | -999 | -999 | -120 | -16.702 | 0 | 31 | 2024-01-10 12:39:33.000 |
| DJSAD12 | Humidity | 습도센서 측정값이 80% 초과 | 평 | 0 | 7700 | 0 | 2.7 | 86.8 | -120 | -17.075 | 0 | 31 | 2024-01-10 12:39:33.000 |
| DJSSD05 | Temperature | 온도센서 측정값이 0도 미만 | 평 | 843 | 2553 | 4858 | -45.4 | 43.6 | 5526 | 769.152 | 486.258 | 0 | 2024-01-10 12:39:32.000 |
| DJSAD16 | Humidity | 습도센서 측정값이 80% 초과 | 평 | 88 | 6320 | 3385 | 4 | 80.5 | 1259 | 125.466 | 79.319 | 11 | 2024-01-10 12:39:31.000 |
| DJSSD09 | Temperature | 온도센서 측정값이 0도 미만 | 평 | 121 | 2926 | 3406 | -45.4 | 0 | 4753 | 661.537 | 418.224 | 11 | 2024-01-10 12:39:31.000 |
| DJDJD04 | Humidity | 습도센서 측정값이 80% 초과 | 평 | 282 | 4185 | 4437 | 3.5 | 81.5 | 3494 | 423.428 | 267.691 | 11 | 2024-01-10 12:39:31.000 |
| DJSAD08 | Humidity | 습도센서 측정값이 80% 초과 | 평 | 595 | 2544 | 4920 | 7.1 | 85.3 | 5035 | 716.544 | 452.999 | 12 | 2024-01-10 12:39:31.000 |
| DJSAD18 | Humidity | 습도센서 측정값이 80% 초과 | 평 | 118 | 1358 | 5780 | 4.4 | 80.8 | 6221 | 619.487 | 391.64 | 11 | 2024-01-10 12:39:30.000 |
| DJSAD07 | Humidity | 습도센서 측정값이 80% 초과 | 평 | 209 | 2597 | 3187 | 3.6 | 86.4 | 4982 | 708.992 | 448.225 | 11 | 2024-01-10 12:39:30.000 |
| DJSAD17 | Humidity | 습도센서 측정값이 80% 초과 | 평 | 439 | 3128 | 4744 | 3.7 | 80.5 | 4451 | 443.276 | 280.239 | 0 | 2024-01-10 12:39:29.000 |
[첫 페이지] [10019] [10020] [10021] [10022] 10023 [10024] [10025] [10026] [10027] [마지막 페이지]